createdAt,value
2018-09-12T00:00:22.079Z,27.49
2018-09-12T00:01:22.552Z,26.73
2018-09-12T00:02:23.020Z,22.35
2018-09-12T00:03:23.490Z,22.14
2018-09-12T00:04:23.964Z,21.87
2018-09-12T00:05:24.433Z,22.09
2018-09-12T00:06:24.903Z,21.31
2018-09-12T00:07:25.374Z,22.09
2018-09-12T00:08:25.846Z,22.09
2018-09-12T00:09:26.318Z,22.37
2018-09-12T00:10:26.791Z,23.21
2018-09-12T00:11:27.262Z,24.26
2018-09-12T00:12:27.733Z,23.83
2018-09-12T00:13:28.205Z,23.66
2018-09-12T00:14:28.677Z,24.29
2018-09-12T00:15:29.149Z,26.74
2018-09-12T00:16:29.624Z,25.22
2018-09-12T00:17:30.095Z,24.00
2018-09-12T00:18:30.569Z,23.02
2018-09-12T00:19:31.042Z,23.06
2018-09-12T00:20:31.515Z,22.75
2018-09-12T00:21:31.992Z,22.93
2018-09-12T00:22:32.464Z,22.72
2018-09-12T00:23:32.936Z,25.09
2018-09-12T00:24:33.411Z,26.06
2018-09-12T00:25:33.888Z,24.87
2018-09-12T00:26:34.360Z,25.47
2018-09-12T00:27:34.835Z,24.95
2018-09-12T00:28:35.313Z,24.46
2018-09-12T00:29:35.784Z,24.61
2018-09-12T00:30:36.258Z,26.93
2018-09-12T00:31:36.730Z,27.10
2018-09-12T00:32:37.206Z,26.17
2018-09-12T00:33:37.681Z,26.14
2018-09-12T00:34:38.155Z,25.79
2018-09-12T00:35:38.630Z,24.40
2018-09-12T00:36:39.104Z,25.65
2018-09-12T00:37:39.600Z,25.27
2018-09-12T00:38:40.089Z,24.47
2018-09-12T00:39:40.527Z,23.46
2018-09-12T00:40:41.000Z,22.93
2018-09-12T00:41:41.474Z,22.44
2018-09-12T00:42:41.954Z,21.52
2018-09-12T00:43:42.422Z,21.77
2018-09-12T00:44:42.896Z,21.53
2018-09-12T00:45:43.368Z,20.78
2018-09-12T00:46:43.843Z,22.73
2018-09-12T00:47:44.313Z,21.45
2018-09-12T00:48:44.787Z,21.74
2018-09-12T00:49:45.260Z,21.24
2018-09-12T00:50:45.734Z,22.06
2018-09-12T00:51:46.204Z,23.36
2018-09-12T00:52:46.679Z,24.34
2018-09-12T00:53:47.153Z,22.93
2018-09-12T00:54:47.621Z,25.24
2018-09-12T00:55:48.098Z,25.73
2018-09-12T00:56:48.567Z,26.00
2018-09-12T00:57:49.037Z,23.10
2018-09-12T00:58:49.518Z,23.42
2018-09-12T00:59:49.981Z,22.09
2018-09-12T01:00:50.452Z,24.33
2018-09-12T01:01:50.922Z,24.36
2018-09-12T01:02:51.396Z,23.21
2018-09-12T01:03:51.868Z,22.22
2018-09-12T01:04:52.338Z,21.03
2018-09-12T01:05:52.813Z,20.92
2018-09-12T01:06:53.276Z,20.68
2018-09-12T01:07:53.747Z,20.18
2018-09-12T01:08:54.217Z,20.61
2018-09-12T01:09:54.692Z,20.53
2018-09-12T01:10:55.158Z,20.43
2018-09-12T01:11:55.628Z,21.10
2018-09-12T01:12:56.100Z,20.81
2018-09-12T01:13:56.568Z,20.53
2018-09-12T01:14:57.041Z,20.75
2018-09-12T01:15:57.510Z,20.32
2018-09-12T01:16:57.980Z,20.32
2018-09-12T01:17:58.450Z,21.00
2018-09-12T01:18:58.921Z,20.39
2018-09-12T01:19:59.393Z,21.45
2018-09-12T01:20:59.863Z,20.60
2018-09-12T01:22:00.336Z,21.17
2018-09-12T01:23:00.805Z,21.06
2018-09-12T01:24:01.276Z,21.52
2018-09-12T01:25:01.745Z,21.77
2018-09-12T01:26:02.217Z,22.61
2018-09-12T01:27:02.690Z,22.71
2018-09-12T01:28:03.160Z,24.19
2018-09-12T01:29:03.633Z,24.25
2018-09-12T01:30:04.105Z,24.14
2018-09-12T01:31:04.579Z,24.07
2018-09-12T01:32:05.049Z,23.34
2018-09-12T01:33:05.524Z,24.35
2018-09-12T01:34:05.994Z,23.02
2018-09-12T01:35:06.471Z,23.27
2018-09-12T01:36:06.941Z,24.18
2018-09-12T01:37:07.413Z,23.76
2018-09-12T01:38:07.892Z,23.34
2018-09-12T01:39:08.362Z,21.79
2018-09-12T01:40:08.834Z,20.66
2018-09-12T01:41:09.307Z,19.53
2018-09-12T01:42:09.789Z,20.96
2018-09-12T01:43:10.461Z,20.81
2018-09-12T01:44:10.730Z,20.96
2018-09-12T01:45:11.205Z,19.03
2018-09-12T01:46:11.679Z,19.54
2018-09-12T01:47:12.153Z,19.18
2018-09-12T01:48:12.633Z,18.86
2018-09-12T01:49:13.103Z,20.25
2018-09-12T01:50:13.577Z,20.32
2018-09-12T01:51:14.050Z,19.97
2018-09-12T01:52:14.523Z,18.68
2018-09-12T01:53:14.997Z,17.24
2018-09-12T01:54:15.472Z,15.84
2018-09-12T01:55:15.946Z,14.05
2018-09-12T01:56:16.420Z,14.50
2018-09-12T01:57:16.895Z,13.10
2018-09-12T01:58:17.370Z,11.56
2018-09-12T01:59:17.840Z,11.26
2018-09-12T02:00:18.311Z,10.04
2018-09-12T02:01:18.783Z,9.93
2018-09-12T02:02:19.257Z,12.00
2018-09-12T02:03:19.931Z,12.44
2018-09-12T02:04:20.201Z,11.63
2018-09-12T02:05:20.675Z,11.04
2018-09-12T02:06:21.147Z,12.07
2018-09-12T02:07:21.622Z,11.78
2018-09-12T02:08:22.091Z,11.19
2018-09-12T02:09:22.563Z,11.70
2018-09-12T02:10:23.034Z,12.51
2018-09-12T02:11:23.505Z,11.70
2018-09-12T02:12:23.978Z,11.70
2018-09-12T02:13:24.450Z,13.32
2018-09-12T02:14:24.921Z,18.84
2018-09-12T02:15:25.390Z,17.72
2018-09-12T02:16:25.861Z,19.69
2018-09-12T02:17:26.332Z,17.75
2018-09-12T02:18:26.806Z,17.39
2018-09-12T02:19:27.275Z,16.67
2018-09-12T02:20:27.752Z,19.94
2018-09-12T02:21:28.216Z,20.12
2018-09-12T02:22:28.686Z,18.16
2018-09-12T02:23:29.157Z,15.52
2018-09-12T02:24:29.625Z,13.99
2018-09-12T02:25:30.097Z,13.84
2018-09-12T02:26:30.567Z,13.62
2018-09-12T02:27:31.036Z,15.08
2018-09-12T02:28:31.510Z,18.98
2018-09-12T02:29:31.979Z,12.29
2018-09-12T02:30:32.447Z,12.96
2018-09-12T02:31:32.924Z,14.35
2018-09-12T02:32:33.392Z,17.91
2018-09-12T02:33:33.860Z,15.08
2018-09-12T02:34:34.330Z,23.73
2018-09-12T02:35:34.803Z,18.26
2018-09-12T02:36:35.270Z,26.09
2018-09-12T02:37:35.745Z,22.66
2018-09-12T02:38:36.213Z,19.11
2018-09-12T02:39:36.687Z,17.24
2018-09-12T02:40:37.156Z,17.25
2018-09-12T02:41:37.632Z,19.47
2018-09-12T02:42:38.101Z,18.47
2018-09-12T02:43:38.573Z,26.65
2018-09-12T02:44:39.387Z,26.99
2018-09-12T02:45:39.518Z,23.01
2018-09-12T02:46:39.992Z,29.87
2018-09-12T02:47:40.695Z,25.01
2018-09-12T02:48:40.937Z,22.74
2018-09-12T02:49:41.411Z,21.39
2018-09-12T02:50:41.885Z,18.61
2018-09-12T02:51:42.368Z,20.05
2018-09-12T02:52:42.832Z,19.12
2018-09-12T02:53:43.307Z,19.48
2018-09-12T02:54:43.780Z,22.32
2018-09-12T02:55:44.256Z,18.68
2018-09-12T02:56:44.729Z,21.15
2018-09-12T02:57:45.201Z,25.64
2018-09-12T02:58:45.677Z,24.63
2018-09-12T02:59:46.151Z,20.40
2018-09-12T03:00:46.626Z,25.05
2018-09-12T03:01:47.100Z,19.83
2018-09-12T03:02:47.575Z,17.83
2018-09-12T03:03:48.048Z,24.08
2018-09-12T03:04:48.521Z,25.20
2018-09-12T03:05:48.994Z,23.38
2018-09-12T03:06:49.469Z,31.65
2018-09-12T03:07:50.028Z,33.69
2018-09-12T03:08:50.415Z,32.51
2018-09-12T03:09:50.894Z,30.55
2018-09-12T03:10:51.362Z,27.40
2018-09-12T03:11:51.835Z,32.72
2018-09-12T03:12:52.309Z,36.02
2018-09-12T03:13:52.782Z,35.48
2018-09-12T03:14:53.256Z,31.90
2018-09-12T03:15:53.728Z,33.55
2018-09-12T03:16:54.203Z,32.07
2018-09-12T03:17:54.675Z,34.35
2018-09-12T03:18:55.146Z,30.42
2018-09-12T03:19:55.620Z,20.90
2018-09-12T03:20:56.220Z,16.25
2018-09-12T03:21:56.559Z,13.48
2018-09-12T03:22:57.033Z,14.59
2018-09-12T03:23:57.503Z,13.93
2018-09-12T03:24:57.974Z,12.76
2018-09-12T03:25:58.447Z,12.61
2018-09-12T03:26:58.918Z,12.98
2018-09-12T03:27:59.389Z,14.60
2018-09-12T03:28:59.861Z,18.00
2018-09-12T03:30:00.332Z,15.97
2018-09-12T03:31:00.801Z,26.34
2018-09-12T03:32:01.281Z,27.81
2018-09-12T03:33:01.741Z,32.94
2018-09-12T03:34:02.220Z,27.49
2018-09-12T03:35:02.683Z,30.42
2018-09-12T03:36:03.157Z,18.19
2018-09-12T03:37:03.624Z,17.44
2018-09-12T03:38:04.094Z,14.73
2018-09-12T03:39:04.564Z,25.50
2018-09-12T03:40:05.037Z,23.12
2018-09-12T03:41:05.505Z,17.56
2018-09-12T03:42:05.976Z,23.26
2018-09-12T03:43:06.451Z,32.07
2018-09-12T03:44:06.918Z,32.47
2018-09-12T03:45:07.385Z,30.40
2018-09-12T03:46:07.858Z,23.03
2018-09-12T03:47:08.329Z,31.86
2018-09-12T03:48:08.875Z,31.35
2018-09-12T03:49:09.274Z,29.41
2018-09-12T03:50:09.742Z,31.01
2018-09-12T03:51:10.214Z,28.66
2018-09-12T03:52:10.686Z,24.44
2018-09-12T03:53:11.158Z,29.21
2018-09-12T03:54:11.629Z,29.62
2018-09-12T03:55:12.101Z,30.30
2018-09-12T03:56:12.573Z,29.48
2018-09-12T03:57:13.046Z,30.02
2018-09-12T03:58:13.519Z,29.78
2018-09-12T03:59:13.991Z,30.80
2018-09-12T04:00:14.465Z,29.54
2018-09-12T04:01:14.935Z,30.46
2018-09-12T04:02:15.411Z,29.68
2018-09-12T04:03:15.885Z,30.22
2018-09-12T04:04:16.359Z,30.63
2018-09-12T04:05:16.832Z,29.00
2018-09-12T04:06:17.305Z,30.46
2018-09-12T04:07:17.782Z,30.70
2018-09-12T04:08:18.255Z,30.43
2018-09-12T04:09:18.726Z,29.06
2018-09-12T04:10:19.202Z,30.36
2018-09-12T04:11:19.676Z,30.50
2018-09-12T04:12:20.150Z,30.97
2018-09-12T04:13:20.625Z,30.84
2018-09-12T04:14:21.098Z,30.77
2018-09-12T04:15:21.576Z,31.31
2018-09-12T04:16:22.048Z,25.06
2018-09-12T04:17:22.523Z,23.87
2018-09-12T04:18:22.996Z,24.19
2018-09-12T04:19:23.469Z,26.25
2018-09-12T04:20:23.943Z,28.73
2018-09-12T04:21:24.416Z,28.66
2018-09-12T04:22:24.888Z,29.89
2018-09-12T04:23:25.366Z,30.23
2018-09-12T04:24:25.890Z,30.57
2018-09-12T04:25:26.309Z,30.77
2018-09-12T04:26:26.791Z,30.33
2018-09-12T04:27:27.259Z,30.50
2018-09-12T04:28:27.727Z,30.03
2018-09-12T04:29:28.200Z,29.21
2018-09-12T04:30:28.673Z,29.48
2018-09-12T04:31:29.144Z,20.91
2018-09-12T04:32:29.619Z,17.99
2018-09-12T04:33:30.091Z,29.63
2018-09-12T04:34:30.766Z,30.51
2018-09-12T04:35:31.033Z,30.71
2018-09-12T04:36:31.507Z,30.87
2018-09-12T04:37:31.976Z,30.90
2018-09-12T04:38:32.450Z,30.35
2018-09-12T04:39:32.919Z,30.08
2018-09-12T04:40:33.389Z,29.74
2018-09-12T04:41:33.861Z,23.90
2018-09-12T04:42:34.358Z,18.91
2018-09-12T04:43:34.802Z,19.57
2018-09-12T04:44:35.274Z,20.29
2018-09-12T04:45:35.745Z,21.32
2018-09-12T04:46:36.213Z,27.79
2018-09-12T04:47:36.686Z,28.13
2018-09-12T04:48:37.424Z,27.68
2018-09-12T04:49:37.623Z,28.67
2018-09-12T04:50:38.094Z,29.08
2018-09-12T04:51:38.565Z,29.72
2018-09-12T04:52:39.039Z,29.95
2018-09-12T04:53:39.510Z,29.20
2018-09-12T04:54:39.979Z,28.72
2018-09-12T04:55:40.448Z,24.07
2018-09-12T04:56:40.919Z,21.34
2018-09-12T04:57:41.386Z,22.90
2018-09-12T04:58:41.858Z,26.46
2018-09-12T04:59:42.361Z,27.50
2018-09-12T05:01:43.273Z,28.31
2018-09-12T05:02:43.743Z,28.58
2018-09-12T05:03:44.214Z,28.68
2018-09-12T05:04:44.685Z,25.74
2018-09-12T05:05:45.162Z,23.37
2018-09-12T05:06:45.630Z,22.32
2018-09-12T05:07:46.101Z,22.82
2018-09-12T05:08:46.573Z,22.28
2018-09-12T05:09:47.045Z,21.58
2018-09-12T05:10:47.519Z,23.39
2018-09-12T05:11:47.990Z,24.30
2018-09-12T05:12:48.465Z,23.11
2018-09-12T05:13:48.938Z,26.53
2018-09-12T05:14:49.410Z,25.49
2018-09-12T05:15:49.887Z,22.83
2018-09-12T05:16:50.361Z,22.77
2018-09-12T05:17:50.832Z,23.90
2018-09-12T05:18:51.307Z,22.92
2018-09-12T05:19:51.781Z,23.76
2018-09-12T05:20:52.257Z,22.54
2018-09-12T05:21:52.728Z,22.36
2018-09-12T05:22:53.205Z,22.57
2018-09-12T05:23:53.678Z,23.48
2018-09-12T05:24:54.153Z,24.31
2018-09-12T05:25:54.624Z,25.55
2018-09-12T05:26:55.099Z,27.45
2018-09-12T05:27:55.575Z,28.58
2018-09-12T05:28:56.050Z,26.08
2018-09-12T05:29:56.522Z,24.00
2018-09-12T05:30:57.000Z,26.41
2018-09-12T05:31:57.472Z,28.31
2018-09-12T05:32:57.957Z,28.92
2018-09-12T05:33:58.419Z,27.92
2018-09-12T05:34:58.891Z,25.87
2018-09-12T05:35:59.367Z,25.43
2018-09-12T05:36:59.841Z,24.84
2018-09-12T05:38:00.313Z,24.34
2018-09-12T05:39:00.786Z,24.69
2018-09-12T05:40:01.262Z,24.98
2018-09-12T05:41:01.733Z,25.47
2018-09-12T05:42:02.205Z,25.75
2018-09-12T05:43:02.679Z,26.14
2018-09-12T05:44:03.154Z,25.69
2018-09-12T05:45:03.624Z,25.54
2018-09-12T05:46:04.096Z,24.98
2018-09-12T05:47:04.567Z,24.53
2018-09-12T05:48:05.039Z,24.42
2018-09-12T05:49:05.568Z,23.72
2018-09-12T05:50:06.018Z,23.73
2018-09-12T05:51:06.454Z,23.88
2018-09-12T05:52:06.926Z,24.02
2018-09-12T05:53:07.399Z,24.08
2018-09-12T05:54:07.869Z,24.54
2018-09-12T05:55:08.341Z,24.84
2018-09-12T05:56:08.811Z,25.13
2018-09-12T05:57:09.287Z,25.49
2018-09-12T05:58:09.757Z,25.28
2018-09-12T05:59:10.226Z,25.14
2018-09-12T06:00:10.697Z,25.35
2018-09-12T06:01:11.167Z,25.81
2018-09-12T06:02:11.636Z,26.26
2018-09-12T06:03:12.106Z,27.16
2018-09-12T06:04:12.578Z,27.37
2018-09-12T06:05:13.049Z,27.71
2018-09-12T06:06:13.523Z,27.64
2018-09-12T06:07:14.218Z,27.37
2018-09-12T06:08:14.460Z,27.09
2018-09-12T06:09:14.931Z,27.03
2018-09-12T06:10:15.402Z,27.38
2018-09-12T06:11:15.873Z,27.18
2018-09-12T06:12:16.344Z,27.32
2018-09-12T06:13:16.815Z,27.81
2018-09-12T06:14:17.414Z,29.36
2018-09-12T06:15:17.759Z,30.08
2018-09-12T06:16:18.229Z,30.91
2018-09-12T06:17:18.701Z,30.61
2018-09-12T06:18:19.172Z,27.77
2018-09-12T06:19:19.646Z,26.31
2018-09-12T06:20:20.115Z,26.34
2018-09-12T06:21:20.589Z,26.48
2018-09-12T06:22:21.060Z,30.46
2018-09-12T06:24:22.010Z,31.91
2018-09-12T06:25:22.529Z,31.56
2018-09-12T06:26:22.956Z,32.44
2018-09-12T06:27:23.425Z,33.17
2018-09-12T06:28:23.901Z,34.38
2018-09-12T06:29:24.376Z,34.70
2018-09-12T06:30:24.847Z,36.48
2018-09-12T06:31:25.322Z,38.33
2018-09-12T06:32:25.801Z,38.49
2018-09-12T06:33:26.274Z,38.43
2018-09-12T06:34:26.746Z,37.55
2018-09-12T06:35:27.222Z,37.97
2018-09-12T06:36:27.697Z,38.26
2018-09-12T06:37:28.172Z,38.19
2018-09-12T06:38:28.699Z,38.22
2018-09-12T06:39:29.123Z,38.13
2018-09-12T06:40:29.597Z,38.91
2018-09-12T06:41:30.071Z,39.17
2018-09-12T06:42:30.545Z,38.91
2018-09-12T06:43:31.020Z,39.85
2018-09-12T06:44:31.544Z,39.11
2018-09-12T06:45:31.969Z,38.47
2018-09-12T06:46:32.445Z,37.72
2018-09-12T06:47:32.921Z,37.72
2018-09-12T06:48:33.394Z,38.01
2018-09-12T06:49:33.869Z,38.17
2018-09-12T06:50:34.342Z,38.32
2018-09-12T06:51:34.815Z,38.88
2018-09-12T06:52:35.291Z,38.44
2018-09-12T06:53:35.765Z,38.37
2018-09-12T06:54:36.282Z,37.98
2018-09-12T06:55:36.713Z,37.23
2018-09-12T06:56:37.186Z,36.48
2018-09-12T06:57:37.660Z,35.89
2018-09-12T06:58:38.134Z,35.30
2018-09-12T06:59:38.608Z,34.85
2018-09-12T07:00:39.098Z,34.45
2018-09-12T07:01:39.558Z,34.22
2018-09-12T07:02:40.030Z,33.69
2018-09-12T07:03:40.499Z,33.62
2018-09-12T07:04:40.974Z,33.33
2018-09-12T07:05:41.447Z,32.93
2018-09-12T07:06:41.920Z,33.28
2018-09-12T07:07:42.410Z,33.37
2018-09-12T07:08:42.870Z,33.61
2018-09-12T07:09:43.341Z,32.36
2018-09-12T07:10:43.810Z,33.38
2018-09-12T07:11:44.286Z,33.08
2018-09-12T07:12:44.755Z,32.37
2018-09-12T07:13:45.227Z,33.55
2018-09-12T07:14:45.700Z,32.58
2018-09-12T07:15:46.174Z,32.55
2018-09-12T07:16:46.644Z,33.39
2018-09-12T07:17:47.115Z,31.73
2018-09-12T07:18:47.588Z,31.30
2018-09-12T07:19:48.060Z,31.20
2018-09-12T07:20:48.534Z,30.18
2018-09-12T07:21:49.004Z,30.52
2018-09-12T07:22:49.477Z,30.51
2018-09-12T07:23:49.947Z,30.58
2018-09-12T07:24:50.435Z,31.43
2018-09-12T07:25:50.893Z,30.10
2018-09-12T07:26:51.362Z,29.48
2018-09-12T07:27:51.841Z,28.76
2018-09-12T07:28:52.309Z,28.24
2018-09-12T07:29:52.778Z,27.77
2018-09-12T07:30:53.247Z,27.56
2018-09-12T07:31:53.922Z,26.80
2018-09-12T07:32:54.190Z,26.32
2018-09-12T07:33:54.668Z,26.25
2018-09-12T07:34:55.136Z,25.97
2018-09-12T07:35:55.604Z,25.33
2018-09-12T07:36:56.078Z,25.26
2018-09-12T07:37:56.547Z,24.98
2018-09-12T07:38:57.020Z,27.25
2018-09-12T07:39:57.490Z,27.90
2018-09-12T07:40:57.961Z,27.27
2018-09-12T07:41:58.434Z,27.51
2018-09-12T07:42:58.948Z,28.15
2018-09-12T07:43:59.375Z,28.53
2018-09-12T07:44:59.846Z,28.23
2018-09-12T07:46:00.319Z,28.02
2018-09-12T07:47:00.789Z,28.57
2018-09-12T07:48:01.265Z,28.64
2018-09-12T07:49:01.755Z,28.99
2018-09-12T07:50:02.204Z,29.40
2018-09-12T07:51:02.877Z,29.26
2018-09-12T07:52:03.148Z,29.02
2018-09-12T07:53:03.619Z,28.85
2018-09-12T07:54:04.091Z,29.20
2018-09-12T07:55:04.614Z,29.00
2018-09-12T07:56:05.096Z,29.35
2018-09-12T07:57:05.510Z,29.56
2018-09-12T07:58:05.983Z,29.76
2018-09-12T07:59:06.456Z,30.89
2018-09-12T08:00:06.943Z,29.56
2018-09-12T08:01:07.455Z,33.17
2018-09-12T08:02:07.879Z,34.73
2018-09-12T08:03:08.353Z,35.60
2018-09-12T08:04:08.830Z,35.88
2018-09-12T08:05:09.372Z,35.83
2018-09-12T08:06:09.834Z,36.18
2018-09-12T08:07:10.259Z,36.21
2018-09-12T08:08:10.737Z,36.59
2018-09-12T08:09:11.215Z,37.74
2018-09-12T08:10:11.694Z,37.78
2018-09-12T08:11:12.173Z,39.02
2018-09-12T08:12:12.717Z,38.70
2018-09-12T08:13:13.133Z,38.89
2018-09-12T08:14:13.614Z,39.47
2018-09-12T08:15:14.093Z,39.48
2018-09-12T08:16:14.576Z,39.48
2018-09-12T08:17:15.107Z,38.70
2018-09-12T08:18:15.544Z,37.58
2018-09-12T08:19:16.023Z,38.51
2018-09-12T08:20:16.506Z,32.68
2018-09-12T08:21:16.989Z,32.03
2018-09-12T08:22:17.473Z,32.01
2018-09-12T08:23:17.954Z,31.65
2018-09-12T08:24:18.438Z,39.11
2018-09-12T08:25:18.920Z,38.94
2018-09-12T08:26:19.522Z,37.79
2018-09-12T08:27:19.887Z,33.74
2018-09-12T08:28:20.364Z,31.85
2018-09-12T08:29:20.845Z,31.42
2018-09-12T08:30:21.327Z,31.70
2018-09-12T08:31:21.810Z,31.12
2018-09-12T08:32:22.285Z,30.85
2018-09-12T08:33:22.767Z,30.66
2018-09-12T08:34:23.240Z,30.39
2018-09-12T08:35:23.716Z,29.85
2018-09-12T08:36:24.256Z,30.26
2018-09-12T08:37:24.672Z,29.73
2018-09-12T08:38:25.148Z,30.14
2018-09-12T08:39:25.623Z,29.60
2018-09-12T08:40:26.100Z,30.55
2018-09-12T08:41:26.575Z,30.28
2018-09-12T08:42:27.065Z,30.89
2018-09-12T08:43:27.525Z,30.15
2018-09-12T08:44:28.003Z,31.49
2018-09-12T08:45:28.475Z,31.93
2018-09-12T08:46:29.001Z,33.43
2018-09-12T08:47:29.511Z,31.95
2018-09-12T08:48:29.979Z,27.64
2018-09-12T08:49:30.461Z,27.24
2018-09-12T08:50:30.876Z,28.15
2018-09-12T08:51:31.408Z,29.77
2018-09-12T08:52:31.830Z,29.94
2018-09-12T08:53:32.324Z,29.67
2018-09-12T08:54:33.019Z,30.52
2018-09-12T08:55:33.278Z,30.76
2018-09-12T08:56:33.781Z,30.52
2018-09-12T08:57:34.182Z,29.60
2018-09-12T08:58:34.837Z,30.21
2018-09-12T08:59:35.147Z,29.39
2018-09-12T09:00:35.630Z,29.46
2018-09-12T09:01:36.127Z,32.80
2018-09-12T09:02:36.600Z,31.52
2018-09-12T09:03:37.241Z,31.94
2018-09-12T09:04:37.734Z,27.35
2018-09-12T09:05:38.143Z,26.17
2018-09-12T09:06:38.554Z,27.90
2018-09-12T09:07:39.118Z,26.99
2018-09-12T09:08:40.037Z,27.16
2018-09-12T09:09:54.281Z,28.24
2018-09-12T09:10:54.589Z,28.80
2018-09-12T09:11:55.063Z,28.72
2018-09-12T09:12:55.563Z,28.54
2018-09-12T09:13:56.019Z,28.86
2018-09-12T09:14:56.521Z,28.76
2018-09-12T09:15:56.983Z,29.42
2018-09-12T09:16:57.527Z,28.39
2018-09-12T09:17:58.226Z,33.55
2018-09-12T09:18:58.384Z,37.88
2018-09-12T09:19:59.197Z,39.53
2018-09-12T09:20:59.332Z,40.64
2018-09-12T09:21:59.772Z,41.07
2018-09-12T09:23:00.228Z,41.67
2018-09-12T09:24:00.725Z,41.78
2018-09-12T09:25:01.198Z,42.10
2018-09-12T09:26:01.653Z,42.29
2018-09-12T09:27:02.175Z,42.19
2018-09-12T09:28:02.613Z,42.06
2018-09-12T09:30:03.586Z,42.22
2018-09-12T09:31:04.040Z,42.06
2018-09-12T09:32:04.497Z,41.95
2018-09-12T09:33:05.180Z,41.83
2018-09-12T09:34:05.472Z,41.74
2018-09-12T09:35:06.204Z,41.65
2018-09-12T09:36:06.386Z,41.86
2018-09-12T09:37:07.072Z,42.94
2018-09-12T09:38:07.322Z,43.06
2018-09-12T09:39:07.805Z,41.94
2018-09-12T09:40:08.280Z,41.87
2018-09-12T09:41:08.864Z,42.01
2018-09-12T09:43:09.699Z,46.05
2018-09-12T09:44:10.199Z,47.60
2018-09-12T09:45:10.862Z,48.87
2018-09-12T09:46:11.142Z,48.97
2018-09-12T09:47:11.691Z,48.14
2018-09-12T09:48:12.237Z,47.71
2018-09-12T09:49:12.538Z,48.53
2018-09-12T09:50:13.010Z,49.77
2018-09-12T09:51:13.499Z,49.04
2018-09-12T09:52:14.040Z,49.35
2018-09-12T09:53:14.467Z,49.52
2018-09-12T09:54:14.893Z,49.02
2018-09-12T09:55:15.379Z,48.36
2018-09-12T09:57:16.304Z,48.33
2018-09-12T09:58:16.826Z,47.57
2018-09-12T09:59:17.274Z,47.52
2018-09-12T10:00:17.951Z,48.40
2018-09-12T10:01:18.263Z,48.37
2018-09-12T10:02:18.734Z,47.70
2018-09-12T10:03:19.185Z,47.66
2018-09-12T10:04:19.633Z,47.96
2018-09-12T10:05:20.096Z,48.87
2018-09-12T10:06:20.588Z,49.05
2018-09-12T10:07:21.115Z,49.36
2018-09-12T10:08:21.529Z,49.22
2018-09-12T10:09:22.043Z,49.85
2018-09-12T10:10:22.704Z,50.69
2018-09-12T10:11:22.959Z,50.43
2018-09-12T10:12:23.641Z,49.44
2018-09-12T10:13:23.924Z,49.32
2018-09-12T10:14:24.363Z,49.10
2018-09-12T10:15:24.856Z,48.63
2018-09-12T10:16:25.410Z,47.48
2018-09-12T10:17:25.793Z,46.73
2018-09-12T10:18:26.274Z,46.28
2018-09-12T10:19:26.735Z,46.45
2018-09-12T10:20:27.221Z,45.86
2018-09-12T10:21:27.714Z,46.45
2018-09-12T10:22:28.149Z,46.73
2018-09-12T10:23:28.635Z,46.85
2018-09-12T10:24:29.335Z,46.60
2018-09-12T10:25:29.590Z,46.74
2018-09-12T10:26:30.272Z,46.89
2018-09-12T10:27:30.580Z,47.35
2018-09-12T10:28:31.031Z,47.49
2018-09-12T10:29:31.469Z,47.90
2018-09-12T10:30:31.960Z,48.34
2018-09-12T10:31:32.425Z,48.16
2018-09-12T10:32:33.005Z,48.23
2018-09-12T10:33:33.383Z,47.95
2018-09-12T10:34:33.891Z,48.55
2018-09-12T10:35:34.332Z,48.50
2018-09-12T10:36:34.822Z,48.83
2018-09-12T10:37:35.526Z,48.26
2018-09-12T10:38:35.762Z,47.95
2018-09-12T10:39:36.199Z,48.59
2018-09-12T10:40:36.719Z,49.14
2018-09-12T10:41:37.172Z,49.07
2018-09-12T10:42:37.749Z,49.42
2018-09-12T10:43:38.370Z,49.04
2018-09-12T10:44:38.604Z,48.72
2018-09-12T10:45:39.079Z,48.53
2018-09-12T10:46:39.567Z,48.91
2018-09-12T10:47:40.070Z,50.15
2018-09-12T10:48:40.512Z,50.31
2018-09-12T10:49:40.967Z,49.71
2018-09-12T10:51:41.931Z,48.59
2018-09-12T10:52:42.503Z,48.35
2018-09-12T10:53:42.892Z,48.00
2018-09-12T10:54:43.357Z,48.72
2018-09-12T10:55:44.008Z,48.93
2018-09-12T10:56:44.501Z,49.22
2018-09-12T10:57:44.752Z,49.56
2018-09-12T10:58:45.249Z,49.66
2018-09-12T10:59:45.734Z,50.06
2018-09-12T11:00:46.208Z,50.09
2018-09-12T11:01:46.686Z,50.35
2018-09-12T11:02:47.198Z,50.66
2018-09-12T11:03:47.824Z,51.02
2018-09-12T11:04:48.119Z,50.85
2018-09-12T11:05:48.551Z,50.74
2018-09-12T11:06:49.069Z,51.11
2018-09-12T11:07:49.581Z,50.70
2018-09-12T11:08:50.128Z,49.99
2018-09-12T11:09:50.498Z,49.64
2018-09-12T11:10:50.954Z,49.82
2018-09-12T11:11:51.824Z,50.36
2018-09-12T11:12:51.878Z,51.26
2018-09-12T11:13:52.411Z,51.78
2018-09-12T11:14:52.868Z,51.65
2018-09-12T11:15:53.660Z,50.20
2018-09-12T11:16:53.821Z,50.15
2018-09-12T11:17:54.310Z,49.45
2018-09-12T11:18:54.747Z,50.09
2018-09-12T11:19:55.225Z,50.41
2018-09-12T11:21:56.192Z,50.71
2018-09-12T11:22:56.710Z,50.32
2018-09-12T11:23:57.214Z,50.66
2018-09-12T11:24:57.613Z,50.98
2018-09-12T11:25:58.087Z,51.61
2018-09-12T11:26:58.568Z,52.33
2018-09-12T11:27:59.092Z,52.66
2018-09-12T11:28:59.716Z,53.15
2018-09-12T11:29:59.966Z,53.27
2018-09-12T11:31:00.517Z,54.18
2018-09-12T11:32:00.941Z,54.75
2018-09-12T11:33:01.719Z,55.51
2018-09-12T11:34:02.104Z,55.62
2018-09-12T11:35:02.577Z,55.31
2018-09-12T11:36:02.873Z,55.18
2018-09-12T11:37:03.357Z,55.38
2018-09-12T11:38:04.001Z,55.87
2018-09-12T11:39:04.273Z,56.52
2018-09-12T11:41:05.227Z,57.13
2018-09-12T11:42:05.707Z,57.29
2018-09-12T11:43:06.241Z,56.42
2018-09-12T11:44:06.672Z,56.47
2018-09-12T11:45:07.134Z,56.45
2018-09-12T11:46:07.617Z,56.20
2018-09-12T11:47:08.111Z,55.95
2018-09-12T11:48:08.960Z,55.85
2018-09-12T11:49:09.103Z,55.24
2018-09-12T11:50:09.504Z,55.10
2018-09-12T11:51:09.990Z,55.23
2018-09-12T11:52:10.470Z,55.68
2018-09-12T11:53:10.989Z,55.96
2018-09-12T11:54:11.424Z,56.39
2018-09-12T11:55:11.961Z,56.73
2018-09-12T11:56:12.403Z,57.11
2018-09-12T11:57:12.844Z,56.99
2018-09-12T11:58:13.383Z,56.96
2018-09-12T11:59:13.809Z,56.93
2018-09-12T12:02:15.252Z,57.28
2018-09-12T12:03:15.787Z,56.94
2018-09-12T12:04:16.181Z,56.07
2018-09-12T12:05:16.683Z,55.25
2018-09-12T12:06:17.145Z,54.16
2018-09-12T12:07:17.593Z,53.55
2018-09-12T12:08:18.108Z,52.69
2018-09-12T12:09:18.569Z,51.96
2018-09-12T12:10:19.248Z,50.98
2018-09-12T12:11:19.526Z,50.23
2018-09-12T12:12:20.059Z,49.75
2018-09-12T12:13:20.555Z,49.24
2018-09-12T12:14:20.948Z,49.65
2018-09-12T12:15:21.644Z,50.25
2018-09-12T12:16:21.947Z,50.56
2018-09-12T12:17:22.392Z,50.43
2018-09-12T12:18:22.870Z,50.64
2018-09-12T12:19:24.318Z,51.12
2018-09-12T12:20:23.829Z,51.24
2018-09-12T12:21:24.357Z,52.40
2018-09-12T12:23:25.309Z,53.83
2018-09-12T12:24:25.713Z,53.98
2018-09-12T12:25:26.241Z,53.57
2018-09-12T12:26:26.877Z,53.75
2018-09-12T12:27:27.237Z,53.77
2018-09-12T12:28:27.644Z,53.41
2018-09-12T12:29:28.120Z,52.87
2018-09-12T12:30:28.615Z,52.44
2018-09-12T12:31:29.077Z,52.80
2018-09-12T12:32:29.541Z,54.90
2018-09-12T12:33:30.007Z,57.41
2018-09-12T12:34:30.564Z,57.87
2018-09-12T12:35:31.095Z,57.55
2018-09-12T12:36:31.473Z,57.40
2018-09-12T12:37:31.939Z,56.14
2018-09-12T12:38:32.489Z,55.68
2018-09-12T12:39:32.915Z,55.83
2018-09-12T12:40:33.394Z,54.92
2018-09-12T12:41:33.857Z,55.06
2018-09-12T12:42:34.339Z,54.01
2018-09-12T12:43:34.861Z,52.73
2018-09-12T12:44:35.298Z,52.28
2018-09-12T12:45:35.799Z,52.23
2018-09-12T12:46:36.246Z,51.81
2018-09-12T12:47:36.721Z,52.08
2018-09-12T12:48:37.603Z,50.89
2018-09-12T12:49:37.692Z,49.98
2018-09-12T12:50:38.195Z,49.81
2018-09-12T12:51:38.641Z,49.86
2018-09-12T12:52:39.110Z,49.60
2018-09-12T12:54:40.075Z,49.85
2018-09-12T12:55:40.754Z,50.57
2018-09-12T12:56:41.041Z,50.92
2018-09-12T12:57:41.502Z,51.55
2018-09-12T12:58:42.037Z,51.91
2018-09-12T12:59:42.452Z,51.93
2018-09-12T13:00:43.215Z,51.89
2018-09-12T13:01:43.425Z,51.72
2018-09-12T13:03:46.084Z,51.34
2018-09-12T13:04:44.886Z,51.61
2018-09-12T13:05:45.593Z,52.11
2018-09-12T13:06:45.807Z,52.84
2018-09-12T13:07:46.305Z,53.46
2018-09-12T13:08:46.803Z,53.40
2018-09-12T13:09:47.384Z,53.69
2018-09-12T13:10:47.741Z,52.92
2018-09-12T13:11:48.228Z,53.02